Lyneham, United Kingdom
Current Conditions -  °F | °C
As of 12:25 AM on Friday 19 Dec 2014 (Local Time) from EGVA Reporting Station
Light Rain Light Rain  
Wind Chill: 54°   Ceiling: 500
Heat Index: 54°   Visibility: 5mi
Dew Point: 54°   Wind: 18mph
Humidity: 100%   Direction: 240°WSW
Pressure: 29.78"   Gusts: 28mph
Location:  51.5°N, 1.98°W
Report Text: EGVA 190025Z AUTO 24016G24KT 8000 -RA BR BKN005 OVC018 12/12 A2978 RMK AO2 BKN V OVC
Loading
Personal Weather Stations






























Interactive Weather Map New forecast layout! Learn more

10-Day Weather Forecast

Advertisements
Track Severe Weather on mobile